Lennon, Michigan
Current Conditions -  °F | °C
As of 6:53 AM on Wednesday 26 Nov 2014 (Local Time) from KFNT Reporting Station
Overcast Overcast  
Wind Chill: 31°   Ceiling: 2500
Heat Index: 31°   Visibility: 10mi
Dew Point: 20°   Wind: 0mph
Humidity: 64%   Direction: NA
Pressure: 30.18"   Gusts: NA
Location:  42.99°N, 83.93°W
Report Text: KFNT 261153Z 00000KT 10SM OVC025 M01/M07 A3018 RMK AO2 SLP230 T10061067 11006 21011 55004
Loading
Personal Weather Stations






























Interactive Weather Map New forecast layout! Learn more

10-Day Weather Forecast

Advertisements
Track Severe Weather on mobile